createdAt,value
2018-05-10T00:02:00.664Z,99.90
2018-05-10T00:07:37.734Z,99.90
2018-05-10T00:10:16.863Z,99.90
2018-05-10T00:16:01.384Z,99.90
2018-05-10T00:24:38.215Z,99.90
2018-05-10T00:27:19.572Z,99.90
2018-05-10T00:30:00.686Z,99.90
2018-05-10T00:32:42.594Z,99.90
2018-05-10T00:35:23.625Z,99.90
2018-05-10T00:43:30.022Z,99.90
2018-05-10T00:46:08.976Z,99.90
2018-05-10T00:48:49.424Z,99.90
2018-05-10T00:54:18.628Z,99.90
2018-05-10T00:57:00.631Z,99.90
2018-05-10T01:02:39.143Z,99.90
2018-05-10T01:05:21.313Z,99.90
2018-05-10T01:07:59.969Z,99.90
2018-05-10T01:10:42.096Z,99.90
2018-05-10T01:13:23.508Z,99.90
2018-05-10T01:18:56.175Z,99.90
2018-05-10T01:21:37.279Z,99.90
2018-05-10T01:24:19.137Z,99.90
2018-05-10T01:26:59.867Z,99.90
2018-05-10T01:29:41.119Z,99.90
2018-05-10T01:32:22.905Z,99.90
2018-05-10T01:35:05.382Z,99.90
2018-05-10T01:37:54.320Z,99.90
2018-05-10T01:40:36.318Z,99.90
2018-05-10T01:43:16.029Z,99.90
2018-05-10T01:45:56.895Z,99.90
2018-05-10T01:48:38.415Z,99.90
2018-05-10T01:51:28.349Z,99.90
2018-05-10T01:54:09.820Z,99.90
2018-05-10T01:56:50.546Z,99.90
2018-05-10T02:07:30.270Z,99.90
2018-05-10T02:10:12.455Z,99.90
2018-05-10T02:12:53.544Z,99.90
2018-05-10T02:15:34.215Z,99.90
2018-05-10T02:18:23.365Z,99.90
2018-05-10T02:24:04.401Z,99.90
2018-05-10T02:26:46.296Z,99.90
2018-05-10T02:29:38.357Z,99.90
2018-05-10T02:32:17.694Z,99.90
2018-05-10T02:34:57.969Z,99.90
2018-05-10T02:37:39.287Z,99.90
2018-05-10T02:43:10.695Z,99.90
2018-05-10T02:45:51.764Z,99.90
2018-05-10T02:48:33.066Z,99.90
2018-05-10T02:51:15.510Z,99.90
2018-05-10T02:53:54.871Z,99.90
2018-05-10T02:56:35.375Z,99.90
2018-05-10T02:59:20.957Z,99.90
2018-05-10T03:02:04.023Z,99.90
2018-05-10T03:04:45.859Z,99.90
2018-05-10T03:07:27.556Z,99.90
2018-05-10T03:10:08.888Z,99.90
2018-05-10T03:12:49.543Z,99.90
2018-05-10T03:15:30.734Z,99.90
2018-05-10T03:18:11.712Z,99.90
2018-05-10T03:20:53.739Z,99.90
2018-05-10T03:23:36.104Z,99.90
2018-05-10T03:26:17.152Z,99.90
2018-05-10T03:28:58.779Z,99.90
2018-05-10T03:31:39.925Z,99.90
2018-05-10T03:34:25.817Z,99.90
2018-05-10T03:37:06.934Z,99.90
2018-05-10T03:39:48.508Z,99.90
2018-05-10T03:42:30.514Z,99.90
2018-05-10T03:45:10.901Z,99.90
2018-05-10T03:47:50.947Z,99.90
2018-05-10T03:50:30.030Z,99.90
2018-05-10T03:53:12.027Z,99.90
2018-05-10T03:55:54.882Z,99.90
2018-05-10T03:58:36.965Z,99.90
2018-05-10T04:01:22.520Z,99.90
2018-05-10T04:04:04.524Z,99.90
2018-05-10T04:06:45.409Z,99.90
2018-05-10T04:09:27.823Z,99.90
2018-05-10T04:12:08.080Z,99.90
2018-05-10T04:14:49.985Z,99.90
2018-05-10T04:17:31.541Z,99.90
2018-05-10T04:20:13.992Z,99.90
2018-05-10T04:22:55.843Z,99.90
2018-05-10T04:25:45.639Z,99.90
2018-05-10T04:28:26.875Z,99.90
2018-05-10T04:31:09.345Z,99.90
2018-05-10T04:33:50.557Z,99.90
2018-05-10T04:39:23.833Z,99.90
2018-05-10T04:42:05.313Z,99.90
2018-05-10T04:44:54.455Z,99.90
2018-05-10T04:47:36.057Z,99.90
2018-05-10T04:50:16.142Z,99.90
2018-05-10T04:52:58.203Z,99.90
2018-05-10T04:55:45.198Z,99.90
2018-05-10T04:58:30.399Z,99.90
2018-05-10T05:01:17.578Z,99.90
2018-05-10T05:04:03.016Z,99.90
2018-05-10T05:09:53.772Z,99.90
2018-05-10T05:27:28.245Z,99.90
2018-05-10T05:30:17.723Z,99.90
2018-05-10T05:35:58.751Z,99.90
2018-05-10T05:38:40.554Z,99.90
2018-05-10T05:44:31.538Z,99.90
2018-05-10T05:47:15.241Z,99.90
2018-05-10T05:49:58.227Z,99.90
2018-05-10T05:55:37.156Z,99.90
2018-05-10T05:58:26.492Z,99.90
2018-05-10T06:01:14.615Z,99.90
2018-05-10T06:03:56.578Z,99.90
2018-05-10T06:12:39.353Z,99.90
2018-05-10T06:15:31.603Z,99.90
2018-05-10T06:18:19.677Z,99.90
2018-05-10T06:27:07.723Z,99.90
2018-05-10T06:36:02.319Z,99.90
2018-05-10T06:38:51.676Z,99.90
2018-05-10T06:53:25.495Z,99.90
2018-05-10T07:29:06.985Z,99.90
2018-05-10T07:40:42.111Z,99.90
2018-05-10T07:55:10.763Z,98.20
2018-05-10T07:57:48.901Z,97.60
2018-05-10T08:03:27.490Z,97.50
2018-05-10T08:06:05.645Z,97.40
2018-05-10T08:08:52.033Z,97.50
2018-05-10T08:11:35.603Z,96.80
2018-05-10T08:14:16.294Z,96.90
2018-05-10T08:16:50.064Z,95.00
2018-05-10T08:19:23.747Z,93.90
2018-05-10T08:21:56.235Z,93.90
2018-05-10T08:24:26.989Z,92.60
2018-05-10T08:26:57.567Z,92.20
2018-05-10T08:29:33.765Z,92.00
2018-05-10T08:32:13.492Z,91.70
2018-05-10T08:34:43.951Z,91.50
2018-05-10T08:40:15.621Z,90.90
2018-05-10T08:45:43.858Z,90.30
2018-05-10T08:48:16.868Z,90.90
2018-05-10T08:50:50.279Z,90.60
2018-05-10T08:53:22.584Z,90.20
2018-05-10T08:55:54.353Z,90.00
2018-05-10T08:58:28.912Z,90.70
2018-05-10T09:01:01.468Z,90.70
2018-05-10T09:06:23.252Z,89.40
2018-05-10T09:14:41.495Z,87.00
2018-05-10T09:22:52.556Z,84.00
2018-05-10T09:25:21.284Z,83.40
2018-05-10T09:27:50.942Z,82.50
2018-05-10T09:30:20.714Z,82.30
2018-05-10T09:32:50.833Z,83.10
2018-05-10T09:35:21.904Z,76.40
2018-05-10T09:37:51.824Z,78.50
2018-05-10T09:43:08.221Z,81.50
2018-05-10T09:45:38.238Z,79.70
2018-05-10T09:53:47.742Z,77.40
2018-05-10T09:56:20.305Z,74.70
2018-05-10T09:58:49.569Z,74.70
2018-05-10T10:01:18.901Z,72.80
2018-05-10T10:03:47.765Z,72.00
2018-05-10T10:06:16.019Z,71.30
2018-05-10T10:08:45.061Z,70.30
2018-05-10T10:11:13.627Z,69.90
2018-05-10T10:13:42.728Z,68.90
2018-05-10T10:16:11.310Z,69.20
2018-05-10T10:18:39.752Z,69.60
2018-05-10T10:21:08.013Z,68.20
2018-05-10T10:23:38.501Z,69.20
2018-05-10T10:26:08.830Z,69.20
2018-05-10T10:28:38.775Z,69.30
2018-05-10T10:31:07.893Z,68.00
2018-05-10T10:33:37.731Z,67.90
2018-05-10T10:36:07.096Z,68.50
2018-05-10T10:38:36.344Z,67.30
2018-05-10T10:41:07.364Z,65.40
2018-05-10T10:43:36.232Z,65.30
2018-05-10T10:46:05.617Z,65.20
2018-05-10T10:48:35.533Z,65.10
2018-05-10T10:51:05.129Z,65.00
2018-05-10T10:53:34.251Z,64.60
2018-05-10T10:56:04.623Z,64.20
2018-05-10T11:07:09.186Z,63.80
2018-05-10T11:09:39.284Z,63.70
2018-05-10T11:12:09.509Z,64.30
2018-05-10T11:14:39.841Z,63.10
2018-05-10T11:22:58.891Z,63.60
2018-05-10T11:25:27.845Z,64.10
2018-05-10T11:27:58.194Z,64.60
2018-05-10T11:30:27.929Z,64.50
2018-05-10T11:32:57.553Z,64.20
2018-05-10T11:35:26.347Z,64.10
2018-05-10T11:37:55.512Z,65.10
2018-05-10T11:40:25.376Z,64.30
2018-05-10T11:42:54.109Z,65.00
2018-05-10T11:45:23.409Z,64.90
2018-05-10T11:47:52.936Z,66.50
2018-05-10T11:50:25.776Z,65.90
2018-05-10T11:52:55.114Z,65.60
2018-05-10T11:55:24.349Z,64.50
2018-05-10T11:57:52.911Z,64.40
2018-05-10T12:00:21.870Z,63.00
2018-05-10T12:02:50.726Z,63.80
2018-05-10T12:05:20.295Z,65.80
2018-05-10T12:07:49.981Z,64.50
2018-05-10T12:10:20.053Z,64.40
2018-05-10T12:12:49.882Z,64.40
2018-05-10T12:15:18.388Z,64.60
2018-05-10T12:17:48.200Z,65.10
2018-05-10T12:20:18.993Z,64.60
2018-05-10T12:22:47.464Z,64.50
2018-05-10T12:25:16.701Z,65.10
2018-05-10T12:27:45.513Z,63.40
2018-05-10T12:30:14.205Z,63.00
2018-05-10T12:32:42.965Z,60.80
2018-05-10T12:35:12.154Z,60.90
2018-05-10T12:37:40.662Z,62.00
2018-05-10T12:40:10.569Z,60.90
2018-05-10T12:42:41.023Z,59.90
2018-05-10T12:45:10.101Z,59.80
2018-05-10T12:50:32.718Z,60.00
2018-05-10T12:53:02.278Z,59.50
2018-05-10T12:55:34.283Z,59.00
2018-05-10T12:58:02.889Z,58.40
2018-05-10T13:00:32.621Z,56.50
2018-05-10T13:03:01.794Z,56.50
2018-05-10T13:05:29.768Z,56.80
2018-05-10T13:07:59.328Z,56.00
2018-05-10T13:10:27.888Z,56.40
2018-05-10T13:12:56.539Z,56.30
2018-05-10T13:15:25.218Z,57.00
2018-05-10T13:17:53.695Z,56.50
2018-05-10T13:20:22.109Z,55.90
2018-05-10T13:22:52.135Z,55.50
2018-05-10T13:25:20.815Z,55.90
2018-05-10T13:27:50.097Z,57.00
2018-05-10T13:30:19.922Z,57.40
2018-05-10T13:32:50.240Z,56.80
2018-05-10T13:35:19.514Z,56.80
2018-05-10T13:37:48.464Z,57.10
2018-05-10T13:40:17.717Z,57.40
2018-05-10T13:42:46.864Z,57.30
2018-05-10T13:45:15.400Z,57.70
2018-05-10T13:47:43.831Z,58.00
2018-05-10T13:50:13.335Z,57.40
2018-05-10T14:01:22.504Z,58.20
2018-05-10T14:03:51.630Z,58.10
2018-05-10T14:06:20.247Z,58.50
2018-05-10T14:08:50.871Z,58.60
2018-05-10T14:14:18.800Z,58.60
2018-05-10T14:16:49.092Z,58.70
2018-05-10T14:19:30.408Z,61.20
2018-05-10T14:25:07.413Z,62.90
2018-05-10T14:27:56.008Z,64.80
2018-05-10T14:30:46.562Z,66.00
2018-05-10T14:39:16.062Z,67.90
2018-05-10T15:01:51.019Z,87.90
2018-05-10T15:05:13.706Z,90.20
2018-05-10T15:14:28.783Z,92.40
2018-05-10T15:17:27.266Z,92.60
2018-05-10T15:26:21.516Z,89.10
2018-05-10T15:35:31.916Z,86.70
2018-05-10T15:52:42.179Z,80.00
2018-05-10T15:55:31.739Z,77.70
2018-05-10T15:58:04.715Z,75.70
2018-05-10T16:00:38.317Z,74.00
2018-05-10T16:03:20.044Z,73.10
2018-05-10T16:06:25.527Z,72.70
2018-05-10T16:09:11.665Z,74.10
2018-05-10T16:11:43.579Z,74.00
2018-05-10T16:14:21.948Z,75.30
2018-05-10T16:17:07.871Z,77.50
2018-05-10T16:19:55.955Z,77.50
2018-05-10T16:22:40.405Z,76.20
2018-05-10T16:34:05.120Z,78.30
2018-05-10T16:58:03.867Z,88.80
2018-05-10T17:00:46.661Z,90.10
2018-05-10T17:03:30.137Z,90.90
2018-05-10T17:09:26.431Z,93.00
2018-05-10T17:12:20.440Z,93.40
2018-05-10T17:15:08.228Z,94.20
2018-05-10T17:23:42.946Z,95.30
2018-05-10T17:26:36.043Z,95.00
2018-05-10T17:29:23.971Z,94.20
2018-05-10T17:32:05.865Z,93.70
2018-05-10T17:53:04.910Z,90.10
2018-05-10T17:55:46.089Z,90.30
2018-05-10T18:01:24.964Z,93.20
2018-05-10T18:07:01.038Z,93.90
2018-05-10T18:09:51.716Z,94.40
2018-05-10T18:15:16.134Z,94.40
2018-05-10T18:29:47.788Z,96.10
2018-05-10T18:32:36.652Z,96.20
2018-05-10T18:41:21.733Z,96.80
2018-05-10T18:50:04.454Z,97.40
2018-05-10T18:52:44.950Z,97.80
2018-05-10T18:55:27.472Z,98.00
2018-05-10T18:58:08.054Z,97.90
2018-05-10T19:00:48.473Z,98.10
2018-05-10T19:06:21.562Z,98.90
2018-05-10T19:12:05.598Z,99.10
2018-05-10T19:17:56.808Z,99.40
2018-05-10T19:20:44.094Z,99.90
2018-05-10T19:23:25.438Z,99.90
2018-05-10T19:26:06.614Z,99.90
2018-05-10T19:28:53.879Z,99.90
2018-05-10T19:31:22.679Z,99.90
2018-05-10T19:33:50.509Z,99.90
2018-05-10T19:36:18.662Z,99.90
2018-05-10T19:38:53.992Z,99.90
2018-05-10T19:41:26.299Z,99.90
2018-05-10T19:43:58.621Z,99.90
2018-05-10T19:46:26.328Z,99.90
2018-05-10T19:48:54.734Z,99.90
2018-05-10T19:51:23.557Z,99.90
2018-05-10T19:53:52.326Z,99.90
2018-05-10T19:56:20.372Z,99.90
2018-05-10T19:58:49.883Z,99.90
2018-05-10T20:01:17.887Z,99.90
2018-05-10T20:03:48.178Z,99.90
2018-05-10T20:06:20.072Z,99.90
2018-05-10T20:08:48.930Z,99.90
2018-05-10T20:11:17.616Z,99.90
2018-05-10T20:13:45.598Z,99.90
2018-05-10T20:16:15.532Z,99.90
2018-05-10T20:18:43.567Z,99.90
2018-05-10T20:21:12.259Z,99.90
2018-05-10T20:23:41.140Z,99.90
2018-05-10T20:26:09.698Z,99.90
2018-05-10T20:28:38.467Z,99.90
2018-05-10T20:31:06.493Z,99.90
2018-05-10T20:33:35.473Z,99.90
2018-05-10T20:36:03.530Z,99.90
2018-05-10T20:38:31.891Z,99.90
2018-05-10T20:41:02.751Z,99.90
2018-05-10T20:43:31.449Z,99.90
2018-05-10T20:46:00.283Z,99.90
2018-05-10T20:48:28.975Z,99.90
2018-05-10T20:50:58.246Z,99.90
2018-05-10T20:53:28.408Z,99.90
2018-05-10T20:55:56.553Z,99.90
2018-05-10T20:58:26.288Z,99.90
2018-05-10T21:00:54.028Z,99.90
2018-05-10T21:03:21.720Z,99.90
2018-05-10T21:05:50.233Z,99.90
2018-05-10T21:08:17.862Z,99.90
2018-05-10T21:10:46.239Z,99.90
2018-05-10T21:13:14.587Z,99.90
2018-05-10T21:15:42.191Z,99.90
2018-05-10T21:18:09.845Z,99.90
2018-05-10T21:20:38.241Z,99.90
2018-05-10T21:23:05.921Z,99.90
2018-05-10T21:25:35.056Z,99.90
2018-05-10T21:28:02.726Z,99.90
2018-05-10T21:30:30.563Z,99.90
2018-05-10T21:32:58.320Z,99.90
2018-05-10T21:35:27.065Z,99.90
2018-05-10T21:37:55.654Z,99.90
2018-05-10T21:40:24.217Z,99.90
2018-05-10T21:42:52.049Z,99.90
2018-05-10T21:45:19.740Z,99.90
2018-05-10T21:47:47.646Z,99.90
2018-05-10T21:50:16.594Z,99.90
2018-05-10T21:52:44.218Z,99.90
2018-05-10T21:55:11.867Z,99.90
2018-05-10T21:57:40.422Z,99.90
2018-05-10T22:00:08.186Z,99.90
2018-05-10T22:02:35.903Z,99.90
2018-05-10T22:05:03.867Z,99.90
2018-05-10T22:07:31.517Z,99.90
2018-05-10T22:10:00.323Z,99.90
2018-05-10T22:12:28.283Z,99.90
2018-05-10T22:14:56.088Z,99.90
2018-05-10T22:17:23.875Z,99.90
2018-05-10T22:19:51.552Z,99.90
2018-05-10T22:22:19.300Z,99.90
2018-05-10T22:24:47.125Z,99.90
2018-05-10T22:27:14.937Z,99.90
2018-05-10T22:29:42.651Z,99.90
2018-05-10T22:32:11.428Z,99.90
2018-05-10T22:34:39.893Z,99.90
2018-05-10T22:37:07.674Z,99.90
2018-05-10T22:39:36.318Z,99.90
2018-05-10T22:42:04.116Z,99.90
2018-05-10T22:44:32.746Z,99.90
2018-05-10T22:47:01.321Z,99.90
2018-05-10T22:49:29.716Z,99.90
2018-05-10T22:51:58.367Z,99.90
2018-05-10T22:54:27.337Z,99.90
2018-05-10T22:56:55.637Z,99.90
2018-05-10T22:59:24.176Z,99.90
2018-05-10T23:01:51.985Z,99.90
2018-05-10T23:04:20.538Z,99.90
2018-05-10T23:06:48.776Z,99.90
2018-05-10T23:09:16.728Z,99.90
2018-05-10T23:11:44.530Z,99.90
2018-05-10T23:14:12.132Z,99.90
2018-05-10T23:16:39.990Z,99.90
2018-05-10T23:19:07.665Z,99.90
2018-05-10T23:21:36.034Z,99.90
2018-05-10T23:24:05.609Z,99.90
2018-05-10T23:26:34.172Z,99.90
2018-05-10T23:29:01.916Z,99.90
2018-05-10T23:31:31.185Z,99.90
2018-05-10T23:33:59.671Z,99.90
2018-05-10T23:36:27.415Z,99.90
2018-05-10T23:38:55.189Z,99.90
2018-05-10T23:41:22.854Z,99.90
2018-05-10T23:43:50.583Z,99.90
2018-05-10T23:46:18.332Z,99.90
2018-05-10T23:48:46.124Z,99.90
2018-05-10T23:51:13.904Z,99.90
2018-05-10T23:53:41.821Z,99.90
2018-05-10T23:56:10.934Z,99.90
2018-05-10T23:58:38.874Z,99.90
